createdAt,value
2018-09-30T00:00:50.517Z,86.25
2018-09-30T00:01:50.605Z,86.44
2018-09-30T00:02:50.691Z,86.63
2018-09-30T00:03:50.773Z,86.16
2018-09-30T00:04:50.869Z,85.78
2018-09-30T00:05:59.616Z,85.87
2018-09-30T00:06:51.081Z,86.16
2018-09-30T00:07:51.172Z,86.07
2018-09-30T00:08:51.257Z,85.78
2018-09-30T00:09:51.347Z,85.78
2018-09-30T00:10:51.437Z,85.87
2018-09-30T00:11:51.525Z,86.16
2018-09-30T00:12:51.615Z,86.40
2018-09-30T00:13:51.703Z,86.68
2018-09-30T00:14:51.793Z,86.59
2018-09-30T00:15:51.886Z,86.59
2018-09-30T00:16:51.972Z,86.44
2018-09-30T00:17:52.055Z,86.68
2018-09-30T00:18:52.146Z,86.78
2018-09-30T00:19:52.234Z,86.97
2018-09-30T00:20:52.324Z,87.06
2018-09-30T00:21:52.409Z,87.16
2018-09-30T00:22:52.498Z,86.59
2018-09-30T00:23:52.587Z,86.68
2018-09-30T00:24:52.672Z,86.78
2018-09-30T00:25:52.761Z,86.87
2018-09-30T00:26:52.855Z,86.11
2018-09-30T00:27:52.939Z,86.78
2018-09-30T00:28:53.028Z,86.97
2018-09-30T00:29:53.122Z,86.78
2018-09-30T00:30:53.205Z,87.25
2018-09-30T00:31:53.293Z,87.25
2018-09-30T00:32:53.382Z,87.25
2018-09-30T00:33:53.470Z,87.35
2018-09-30T00:34:53.557Z,87.25
2018-09-30T00:35:53.649Z,87.25
2018-09-30T00:36:53.752Z,86.97
2018-09-30T00:37:53.826Z,87.16
2018-09-30T00:38:53.918Z,87.25
2018-09-30T00:39:54.007Z,87.06
2018-09-30T00:40:54.092Z,87.06
2018-09-30T00:41:54.181Z,87.25
2018-09-30T00:42:54.269Z,87.16
2018-09-30T00:43:54.357Z,87.16
2018-09-30T00:44:54.443Z,87.25
2018-09-30T00:45:54.532Z,87.45
2018-09-30T00:46:54.623Z,87.06
2018-09-30T00:47:54.708Z,87.63
2018-09-30T00:48:54.795Z,87.06
2018-09-30T00:49:54.895Z,87.35
2018-09-30T00:50:54.982Z,87.45
2018-09-30T00:51:55.070Z,87.45
2018-09-30T00:52:55.158Z,87.25
2018-09-30T00:53:55.247Z,87.35
2018-09-30T00:54:55.337Z,87.92
2018-09-30T00:55:55.422Z,87.45
2018-09-30T00:56:55.510Z,87.63
2018-09-30T00:57:55.597Z,87.35
2018-09-30T00:58:55.691Z,87.63
2018-09-30T00:59:55.777Z,87.54
2018-09-30T01:00:55.864Z,87.73
2018-09-30T01:01:55.953Z,87.06
2018-09-30T01:02:56.039Z,87.25
2018-09-30T01:03:56.127Z,87.45
2018-09-30T01:04:56.218Z,87.92
2018-09-30T01:05:56.306Z,87.54
2018-09-30T01:06:56.414Z,87.73
2018-09-30T01:07:56.495Z,87.92
2018-09-30T01:08:56.585Z,87.45
2018-09-30T01:09:56.670Z,87.06
2018-09-30T01:10:56.761Z,87.25
2018-09-30T01:11:56.844Z,87.06
2018-09-30T01:12:56.933Z,86.87
2018-09-30T01:13:57.025Z,87.16
2018-09-30T01:14:57.109Z,87.16
2018-09-30T01:15:57.243Z,86.87
2018-09-30T01:16:57.286Z,86.59
2018-09-30T01:17:57.371Z,86.68
2018-09-30T01:18:57.457Z,86.68
2018-09-30T01:19:57.546Z,86.97
2018-09-30T01:20:57.637Z,87.06
2018-09-30T01:21:57.719Z,86.97
2018-09-30T01:22:57.809Z,86.87
2018-09-30T01:23:57.897Z,86.78
2018-09-30T01:24:57.986Z,86.49
2018-09-30T01:25:58.069Z,87.06
2018-09-30T01:26:58.163Z,87.06
2018-09-30T01:27:58.251Z,87.25
2018-09-30T01:28:58.335Z,87.25
2018-09-30T01:29:58.423Z,87.25
2018-09-30T01:30:58.508Z,86.97
2018-09-30T01:31:58.599Z,86.87
2018-09-30T01:32:58.692Z,86.78
2018-09-30T01:33:58.782Z,86.30
2018-09-30T01:34:58.870Z,86.97
2018-09-30T01:35:58.955Z,86.97
2018-09-30T01:36:59.041Z,86.87
2018-09-30T01:37:59.132Z,86.40
2018-09-30T01:38:59.214Z,86.83
2018-09-30T01:39:59.306Z,87.21
2018-09-30T01:40:59.396Z,87.12
2018-09-30T01:41:59.484Z,87.68
2018-09-30T01:42:59.572Z,87.59
2018-09-30T01:43:59.663Z,87.68
2018-09-30T01:44:59.745Z,87.49
2018-09-30T01:45:59.831Z,87.49
2018-09-30T01:46:59.916Z,87.68
2018-09-30T01:48:00.004Z,87.68
2018-09-30T01:49:00.095Z,87.40
2018-09-30T01:50:00.185Z,87.35
2018-09-30T01:51:00.271Z,87.02
2018-09-30T01:52:00.362Z,86.93
2018-09-30T01:53:00.454Z,86.93
2018-09-30T01:54:00.540Z,86.83
2018-09-30T01:55:00.629Z,87.12
2018-09-30T01:56:00.718Z,87.12
2018-09-30T01:57:00.804Z,87.12
2018-09-30T01:58:00.889Z,87.30
2018-09-30T01:59:00.979Z,87.40
2018-09-30T02:00:01.063Z,87.40
2018-09-30T02:01:01.156Z,87.30
2018-09-30T02:02:01.244Z,87.59
2018-09-30T02:03:01.341Z,87.21
2018-09-30T02:04:01.424Z,87.30
2018-09-30T02:05:01.517Z,87.30
2018-09-30T02:06:01.598Z,87.21
2018-09-30T02:07:01.691Z,87.12
2018-09-30T02:08:01.780Z,86.74
2018-09-30T02:09:01.864Z,87.12
2018-09-30T02:10:01.951Z,87.12
2018-09-30T02:11:02.041Z,86.55
2018-09-30T02:12:02.126Z,86.64
2018-09-30T02:13:02.217Z,87.02
2018-09-30T02:14:02.310Z,87.30
2018-09-30T02:15:02.393Z,87.30
2018-09-30T02:16:02.482Z,87.40
2018-09-30T02:17:02.565Z,87.12
2018-09-30T02:18:02.653Z,87.12
2018-09-30T02:19:02.742Z,87.12
2018-09-30T02:20:02.828Z,87.02
2018-09-30T02:21:02.923Z,86.74
2018-09-30T02:22:03.009Z,86.74
2018-09-30T02:23:03.096Z,86.93
2018-09-30T02:24:03.184Z,86.83
2018-09-30T02:25:03.268Z,86.93
2018-09-30T02:26:03.360Z,86.83
2018-09-30T02:27:03.444Z,87.21
2018-09-30T02:28:03.533Z,87.02
2018-09-30T02:29:03.622Z,86.93
2018-09-30T02:30:03.708Z,87.02
2018-09-30T02:31:03.799Z,86.93
2018-09-30T02:32:03.884Z,87.02
2018-09-30T02:33:03.974Z,87.21
2018-09-30T02:34:04.066Z,87.21
2018-09-30T02:35:04.154Z,87.21
2018-09-30T02:36:04.239Z,87.02
2018-09-30T02:37:04.325Z,87.12
2018-09-30T02:38:04.411Z,87.02
2018-09-30T02:39:04.494Z,87.21
2018-09-30T02:40:04.593Z,87.40
2018-09-30T02:41:04.679Z,87.02
2018-09-30T02:42:04.771Z,87.21
2018-09-30T02:43:04.855Z,87.02
2018-09-30T02:44:04.943Z,87.12
2018-09-30T02:45:05.031Z,87.12
2018-09-30T02:46:05.121Z,87.21
2018-09-30T02:47:05.203Z,87.40
2018-09-30T02:48:05.289Z,87.12
2018-09-30T02:49:05.376Z,86.93
2018-09-30T02:50:05.464Z,86.93
2018-09-30T02:51:05.546Z,87.12
2018-09-30T02:52:05.632Z,87.02
2018-09-30T02:53:05.716Z,87.12
2018-09-30T02:54:05.805Z,87.02
2018-09-30T02:55:05.894Z,87.21
2018-09-30T02:56:05.983Z,87.21
2018-09-30T02:57:06.072Z,87.40
2018-09-30T02:58:06.164Z,87.49
2018-09-30T02:59:06.246Z,87.59
2018-09-30T03:00:06.339Z,87.87
2018-09-30T03:01:06.428Z,87.59
2018-09-30T03:02:06.516Z,87.59
2018-09-30T03:03:06.603Z,87.87
2018-09-30T03:04:06.698Z,87.21
2018-09-30T03:05:06.787Z,87.12
2018-09-30T03:06:06.873Z,87.12
2018-09-30T03:07:06.961Z,87.30
2018-09-30T03:08:07.050Z,87.68
2018-09-30T03:09:07.140Z,87.30
2018-09-30T03:10:07.234Z,87.02
2018-09-30T03:11:07.322Z,86.88
2018-09-30T03:12:07.411Z,87.12
2018-09-30T03:13:07.499Z,86.83
2018-09-30T03:14:07.584Z,87.12
2018-09-30T03:15:07.671Z,87.16
2018-09-30T03:16:07.764Z,87.40
2018-09-30T03:17:07.853Z,86.98
2018-09-30T03:18:07.938Z,87.26
2018-09-30T03:19:08.030Z,86.98
2018-09-30T03:20:08.116Z,87.16
2018-09-30T03:21:08.205Z,87.16
2018-09-30T03:22:08.295Z,86.93
2018-09-30T03:23:08.383Z,87.16
2018-09-30T03:24:08.475Z,87.35
2018-09-30T03:25:08.558Z,87.64
2018-09-30T03:26:08.648Z,87.45
2018-09-30T03:27:08.736Z,87.16
2018-09-30T03:28:08.825Z,87.45
2018-09-30T03:29:08.916Z,87.83
2018-09-30T03:30:08.997Z,87.73
2018-09-30T03:31:09.085Z,86.98
2018-09-30T03:32:09.176Z,87.35
2018-09-30T03:33:09.263Z,87.35
2018-09-30T03:34:09.350Z,87.26
2018-09-30T03:35:09.438Z,87.64
2018-09-30T03:36:09.526Z,87.64
2018-09-30T03:37:09.610Z,87.45
2018-09-30T03:38:09.708Z,87.26
2018-09-30T03:39:09.794Z,87.54
2018-09-30T03:40:09.887Z,87.54
2018-09-30T03:41:09.992Z,87.26
2018-09-30T03:42:10.077Z,87.35
2018-09-30T03:43:10.166Z,87.73
2018-09-30T03:44:10.251Z,87.64
2018-09-30T03:45:10.339Z,86.98
2018-09-30T03:46:10.435Z,87.07
2018-09-30T03:47:10.518Z,87.16
2018-09-30T03:48:10.609Z,87.26
2018-09-30T03:49:10.694Z,87.92
2018-09-30T03:50:10.783Z,87.54
2018-09-30T03:51:10.869Z,87.45
2018-09-30T03:52:10.960Z,87.54
2018-09-30T03:53:11.051Z,87.73
2018-09-30T03:54:11.130Z,87.64
2018-09-30T03:55:11.218Z,87.54
2018-09-30T03:56:11.304Z,87.54
2018-09-30T03:57:11.392Z,87.54
2018-09-30T03:58:11.480Z,87.16
2018-09-30T03:59:11.574Z,87.35
2018-09-30T04:00:11.661Z,87.35
2018-09-30T04:01:11.750Z,87.35
2018-09-30T04:02:11.833Z,87.54
2018-09-30T04:03:11.933Z,87.16
2018-09-30T04:04:12.018Z,87.35
2018-09-30T04:05:12.105Z,87.16
2018-09-30T04:06:12.180Z,87.35
2018-09-30T04:07:12.277Z,87.35
2018-09-30T04:08:12.368Z,87.35
2018-09-30T04:09:12.456Z,87.26
2018-09-30T04:10:12.652Z,87.26
2018-09-30T04:11:12.635Z,87.83
2018-09-30T04:12:12.745Z,87.35
2018-09-30T04:13:12.829Z,87.16
2018-09-30T04:14:12.917Z,86.98
2018-09-30T04:15:13.006Z,87.07
2018-09-30T04:16:13.093Z,87.16
2018-09-30T04:17:13.208Z,87.16
2018-09-30T04:18:13.269Z,87.35
2018-09-30T04:19:13.352Z,87.26
2018-09-30T04:20:13.442Z,87.26
2018-09-30T04:21:13.532Z,87.07
2018-09-30T04:22:13.616Z,86.98
2018-09-30T04:23:13.707Z,87.07
2018-09-30T04:24:13.797Z,86.88
2018-09-30T04:25:13.894Z,87.07
2018-09-30T04:26:13.972Z,86.88
2018-09-30T04:27:14.059Z,86.98
2018-09-30T04:28:14.152Z,86.98
2018-09-30T04:29:14.238Z,87.45
2018-09-30T04:30:14.324Z,87.54
2018-09-30T04:31:14.414Z,87.64
2018-09-30T04:32:14.499Z,87.45
2018-09-30T04:33:14.668Z,87.54
2018-09-30T04:34:14.674Z,87.07
2018-09-30T04:35:14.765Z,87.64
2018-09-30T04:36:14.848Z,87.35
2018-09-30T04:37:14.939Z,87.16
2018-09-30T04:38:15.026Z,86.93
2018-09-30T04:39:15.122Z,87.54
2018-09-30T04:40:15.204Z,87.54
2018-09-30T04:41:15.287Z,87.45
2018-09-30T04:42:15.383Z,87.45
2018-09-30T04:43:15.466Z,87.45
2018-09-30T04:44:15.554Z,87.54
2018-09-30T04:45:15.638Z,87.45
2018-09-30T04:46:15.725Z,87.16
2018-09-30T04:47:15.817Z,87.16
2018-09-30T04:48:15.901Z,86.88
2018-09-30T04:49:15.988Z,87.16
2018-09-30T04:50:16.072Z,87.07
2018-09-30T04:51:16.161Z,87.16
2018-09-30T04:52:16.250Z,87.07
2018-09-30T04:53:16.336Z,86.88
2018-09-30T04:54:16.425Z,86.79
2018-09-30T04:55:16.522Z,87.16
2018-09-30T04:56:16.609Z,86.88
2018-09-30T04:57:16.696Z,87.16
2018-09-30T04:58:16.787Z,87.45
2018-09-30T04:59:16.872Z,87.45
2018-09-30T05:00:16.960Z,86.88
2018-09-30T05:01:17.045Z,87.16
2018-09-30T05:02:17.135Z,86.93
2018-09-30T05:03:17.229Z,86.98
2018-09-30T05:04:17.309Z,87.12
2018-09-30T05:05:17.396Z,86.98
2018-09-30T05:06:17.481Z,86.98
2018-09-30T05:07:17.570Z,87.50
2018-09-30T05:08:17.655Z,87.35
2018-09-30T05:09:17.745Z,87.73
2018-09-30T05:10:17.829Z,87.69
2018-09-30T05:11:17.920Z,87.12
2018-09-30T05:12:18.009Z,87.16
2018-09-30T05:13:18.095Z,87.02
2018-09-30T05:14:18.183Z,87.50
2018-09-30T05:15:18.270Z,87.50
2018-09-30T05:16:18.411Z,87.40
2018-09-30T05:17:18.439Z,87.50
2018-09-30T05:18:18.530Z,87.59
2018-09-30T05:19:18.620Z,87.64
2018-09-30T05:20:18.709Z,87.45
2018-09-30T05:21:18.793Z,87.35
2018-09-30T05:22:18.880Z,87.35
2018-09-30T05:23:18.968Z,86.98
2018-09-30T05:24:19.057Z,87.26
2018-09-30T05:25:19.142Z,86.98
2018-09-30T05:26:19.233Z,86.88
2018-09-30T05:27:19.316Z,87.07
2018-09-30T05:28:19.409Z,86.60
2018-09-30T05:29:19.499Z,86.98
2018-09-30T05:30:19.586Z,87.07
2018-09-30T05:31:19.701Z,87.02
2018-09-30T05:32:19.764Z,87.07
2018-09-30T05:33:19.856Z,86.98
2018-09-30T05:34:19.936Z,86.93
2018-09-30T05:35:20.028Z,86.98
2018-09-30T05:36:20.116Z,87.26
2018-09-30T05:37:20.241Z,87.07
2018-09-30T05:38:20.303Z,87.21
2018-09-30T05:39:20.392Z,87.35
2018-09-30T05:40:20.479Z,87.54
2018-09-30T05:41:20.570Z,87.35
2018-09-30T05:42:20.660Z,87.26
2018-09-30T05:43:20.741Z,87.16
2018-09-30T05:44:20.824Z,86.98
2018-09-30T05:45:20.914Z,86.98
2018-09-30T05:46:21.007Z,86.98
2018-09-30T05:47:21.083Z,86.50
2018-09-30T05:48:21.172Z,86.79
2018-09-30T05:49:21.258Z,86.41
2018-09-30T05:50:21.348Z,86.22
2018-09-30T05:51:21.434Z,86.12
2018-09-30T05:52:21.519Z,86.12
2018-09-30T05:53:21.613Z,85.84
2018-09-30T05:54:21.701Z,86.12
2018-09-30T05:55:21.787Z,85.93
2018-09-30T05:56:21.878Z,85.74
2018-09-30T05:57:21.991Z,85.55
2018-09-30T05:58:22.044Z,86.03
2018-09-30T05:59:22.133Z,86.12
2018-09-30T06:00:22.226Z,85.74
2018-09-30T06:01:22.308Z,86.31
2018-09-30T06:02:22.396Z,85.46
2018-09-30T06:03:22.476Z,86.03
2018-09-30T06:04:22.560Z,85.36
2018-09-30T06:05:22.650Z,85.27
2018-09-30T06:06:32.424Z,85.36
2018-09-30T06:07:22.763Z,85.55
2018-09-30T06:08:22.861Z,85.13
2018-09-30T06:09:22.982Z,85.22
2018-09-30T06:10:23.029Z,85.03
2018-09-30T06:11:23.116Z,85.22
2018-09-30T06:12:23.202Z,85.03
2018-09-30T06:13:23.290Z,85.41
2018-09-30T06:14:23.381Z,85.50
2018-09-30T06:15:23.466Z,85.60
2018-09-30T06:16:23.555Z,85.78
2018-09-30T06:17:23.641Z,85.60
2018-09-30T06:18:23.724Z,85.50
2018-09-30T06:19:23.816Z,85.41
2018-09-30T06:20:23.904Z,85.03
2018-09-30T06:21:23.994Z,85.31
2018-09-30T06:22:24.080Z,84.94
2018-09-30T06:23:24.168Z,85.31
2018-09-30T06:24:24.257Z,85.50
2018-09-30T06:25:24.344Z,85.13
2018-09-30T06:26:24.435Z,85.69
2018-09-30T06:27:24.522Z,84.74
2018-09-30T06:28:24.612Z,85.03
2018-09-30T06:29:24.700Z,85.60
2018-09-30T06:30:24.792Z,85.50
2018-09-30T06:31:24.872Z,85.74
2018-09-30T06:32:24.963Z,86.11
2018-09-30T06:33:25.053Z,85.83
2018-09-30T06:34:25.145Z,86.40
2018-09-30T06:35:25.241Z,86.02
2018-09-30T06:36:25.332Z,86.02
2018-09-30T06:37:25.418Z,86.02
2018-09-30T06:38:25.510Z,86.11
2018-09-30T06:39:25.595Z,85.93
2018-09-30T06:40:25.699Z,86.21
2018-09-30T06:41:25.771Z,86.11
2018-09-30T06:42:25.859Z,85.74
2018-09-30T06:43:25.954Z,85.74
2018-09-30T06:44:26.045Z,85.93
2018-09-30T06:45:26.181Z,86.11
2018-09-30T06:46:26.217Z,86.21
2018-09-30T06:47:26.303Z,85.97
2018-09-30T06:48:26.398Z,86.44
2018-09-30T06:49:26.489Z,85.87
2018-09-30T06:50:26.586Z,85.97
2018-09-30T06:51:26.674Z,85.59
2018-09-30T06:52:26.768Z,85.87
2018-09-30T06:53:26.858Z,85.78
2018-09-30T06:54:26.945Z,85.97
2018-09-30T06:55:27.032Z,85.49
2018-09-30T06:56:27.120Z,85.40
2018-09-30T06:57:27.209Z,84.83
2018-09-30T06:58:27.297Z,84.74
2018-09-30T06:59:27.385Z,84.45
2018-09-30T07:00:27.472Z,84.07
2018-09-30T07:01:27.560Z,84.26
2018-09-30T07:02:27.648Z,83.64
2018-09-30T07:03:27.742Z,84.01
2018-09-30T07:04:27.828Z,83.97
2018-09-30T07:05:27.916Z,84.07
2018-09-30T07:06:27.997Z,84.26
2018-09-30T07:07:28.096Z,84.26
2018-09-30T07:08:28.171Z,84.17
2018-09-30T07:09:28.263Z,84.45
2018-09-30T07:10:28.352Z,84.83
2018-09-30T07:11:28.438Z,84.64
2018-09-30T07:12:28.527Z,84.64
2018-09-30T07:13:28.615Z,84.92
2018-09-30T07:14:28.707Z,85.02
2018-09-30T07:15:28.798Z,84.92
2018-09-30T07:16:28.885Z,85.40
2018-09-30T07:17:28.975Z,85.16
2018-09-30T07:18:29.061Z,84.92
2018-09-30T07:19:29.151Z,85.35
2018-09-30T07:20:29.245Z,85.06
2018-09-30T07:21:29.337Z,85.25
2018-09-30T07:22:29.428Z,85.72
2018-09-30T07:23:29.516Z,85.63
2018-09-30T07:24:29.602Z,85.91
2018-09-30T07:25:29.691Z,85.63
2018-09-30T07:26:29.780Z,85.63
2018-09-30T07:27:29.875Z,85.25
2018-09-30T07:28:29.962Z,85.72
2018-09-30T07:29:30.050Z,85.44
2018-09-30T07:30:30.141Z,85.06
2018-09-30T07:31:30.230Z,85.25
2018-09-30T07:32:30.323Z,85.06
2018-09-30T07:33:30.407Z,84.68
2018-09-30T07:34:30.502Z,84.30
2018-09-30T07:35:30.591Z,84.16
2018-09-30T07:36:30.678Z,83.87
2018-09-30T07:37:30.769Z,82.82
2018-09-30T07:38:30.855Z,82.82
2018-09-30T07:39:30.951Z,83.11
2018-09-30T07:40:31.029Z,82.82
2018-09-30T07:41:31.120Z,82.26
2018-09-30T07:42:31.214Z,82.54
2018-09-30T07:43:31.298Z,82.54
2018-09-30T07:44:31.389Z,83.20
2018-09-30T07:45:31.489Z,82.92
2018-09-30T07:46:31.589Z,82.45
2018-09-30T07:47:31.667Z,83.11
2018-09-30T07:48:31.757Z,82.73
2018-09-30T07:49:31.844Z,83.01
2018-09-30T07:50:31.939Z,82.92
2018-09-30T07:51:32.023Z,82.92
2018-09-30T07:52:32.164Z,83.20
2018-09-30T07:53:32.198Z,83.01
2018-09-30T07:54:32.287Z,82.92
2018-09-30T07:55:32.378Z,83.01
2018-09-30T07:56:32.469Z,83.01
2018-09-30T07:57:32.561Z,82.39
2018-09-30T07:58:32.636Z,82.29
2018-09-30T07:59:32.724Z,81.73
2018-09-30T08:00:32.812Z,82.01
2018-09-30T08:01:32.902Z,82.01
2018-09-30T08:02:32.993Z,82.49
2018-09-30T08:03:33.084Z,81.82
2018-09-30T08:04:33.165Z,81.63
2018-09-30T08:05:33.263Z,81.92
2018-09-30T08:06:33.462Z,81.96
2018-09-30T08:07:33.442Z,81.73
2018-09-30T08:08:33.531Z,81.82
2018-09-30T08:09:33.623Z,81.77
2018-09-30T08:10:33.712Z,82.05
2018-09-30T08:11:33.804Z,82.05
2018-09-30T08:12:33.899Z,81.38
2018-09-30T08:13:33.986Z,81.48
2018-09-30T08:14:34.078Z,80.44
2018-09-30T08:15:34.168Z,80.24
2018-09-30T08:16:34.337Z,80.05
2018-09-30T08:17:34.342Z,80.15
2018-09-30T08:18:34.440Z,79.96
2018-09-30T08:19:34.528Z,80.34
2018-09-30T08:20:34.618Z,81.10
2018-09-30T08:21:34.711Z,81.01
2018-09-30T08:22:34.788Z,80.44
2018-09-30T08:23:34.878Z,79.52
2018-09-30T08:24:35.007Z,80.10
2018-09-30T08:25:35.058Z,79.81
2018-09-30T08:26:35.145Z,79.72
2018-09-30T08:27:35.231Z,79.52
2018-09-30T08:28:35.321Z,79.62
2018-09-30T08:29:35.415Z,79.14
2018-09-30T08:30:35.513Z,78.77
2018-09-30T08:31:35.590Z,78.52
2018-09-30T08:32:35.682Z,78.80
2018-09-30T08:33:35.772Z,78.42
2018-09-30T08:34:35.864Z,78.42
2018-09-30T08:35:35.961Z,78.42
2018-09-30T08:36:36.048Z,78.71
2018-09-30T08:37:36.139Z,78.14
2018-09-30T08:38:36.229Z,78.04
2018-09-30T08:39:36.341Z,78.52
2018-09-30T08:40:36.410Z,78.42
2018-09-30T08:41:36.500Z,77.76
2018-09-30T08:42:36.590Z,77.22
2018-09-30T08:43:36.699Z,77.51
2018-09-30T08:44:36.770Z,77.13
2018-09-30T08:45:36.861Z,77.03
2018-09-30T08:46:36.990Z,76.75
2018-09-30T08:47:37.077Z,76.65
2018-09-30T08:48:37.140Z,76.84
2018-09-30T08:49:37.218Z,76.75
2018-09-30T08:50:37.305Z,76.08
2018-09-30T08:51:37.396Z,76.12
2018-09-30T08:52:45.138Z,75.84
2018-09-30T08:53:37.605Z,75.74
2018-09-30T08:54:37.714Z,75.84
2018-09-30T08:55:37.825Z,75.45
2018-09-30T08:56:37.896Z,75.26
2018-09-30T08:57:37.986Z,75.26
2018-09-30T08:58:38.075Z,75.20
2018-09-30T08:59:38.166Z,75.26
2018-09-30T09:00:38.257Z,75.07
2018-09-30T09:01:38.361Z,73.77
2018-09-30T09:02:38.432Z,74.06
2018-09-30T09:03:38.522Z,74.25
2018-09-30T09:04:38.612Z,73.39
2018-09-30T09:05:38.703Z,73.01
2018-09-30T09:06:38.796Z,72.53
2018-09-30T09:07:38.886Z,72.44
2018-09-30T09:08:38.978Z,72.86
2018-09-30T09:09:39.124Z,72.09
2018-09-30T09:10:46.295Z,71.81
2018-09-30T09:11:39.264Z,71.91
2018-09-30T09:12:39.356Z,71.04
2018-09-30T09:13:39.451Z,71.23
2018-09-30T09:14:39.541Z,70.47
2018-09-30T09:15:39.630Z,69.90
2018-09-30T09:16:39.721Z,69.62
2018-09-30T09:17:39.814Z,68.79
2018-09-30T09:18:39.903Z,68.03
2018-09-30T09:19:39.991Z,67.36
2018-09-30T09:20:40.101Z,67.46
2018-09-30T09:21:40.172Z,67.07
2018-09-30T09:22:40.280Z,66.69
2018-09-30T09:23:40.364Z,65.83
2018-09-30T09:24:40.458Z,64.97
2018-09-30T09:25:40.556Z,64.62
2018-09-30T09:26:40.609Z,64.43
2018-09-30T09:27:40.700Z,65.20
2018-09-30T09:28:41.124Z,65.01
2018-09-30T09:29:40.937Z,62.81
2018-09-30T09:30:40.900Z,63.00
2018-09-30T09:31:41.016Z,62.81
2018-09-30T09:32:41.077Z,62.05
2018-09-30T09:33:41.166Z,62.62
2018-09-30T09:34:41.253Z,61.89
2018-09-30T09:35:41.354Z,60.36
2018-09-30T09:36:41.438Z,59.02
2018-09-30T09:37:41.536Z,59.78
2018-09-30T09:38:41.620Z,59.78
2018-09-30T09:39:41.714Z,59.41
2018-09-30T09:40:41.809Z,59.22
2018-09-30T09:41:41.898Z,59.22
2018-09-30T09:42:41.992Z,59.12
2018-09-30T09:43:42.084Z,59.72
2018-09-30T09:44:42.197Z,58.67
2018-09-30T09:45:42.293Z,58.58
2018-09-30T09:46:42.382Z,58.19
2018-09-30T09:47:42.477Z,58.48
2018-09-30T09:48:42.568Z,57.81
2018-09-30T09:49:42.661Z,57.90
2018-09-30T09:50:42.752Z,58.10
2018-09-30T09:51:42.838Z,57.71
2018-09-30T09:52:43.027Z,57.90
2018-09-30T09:53:43.029Z,57.43
2018-09-30T09:54:43.123Z,57.26
2018-09-30T09:55:43.220Z,56.79
2018-09-30T09:56:43.306Z,56.79
2018-09-30T09:57:43.423Z,56.79
2018-09-30T09:58:43.520Z,56.98
2018-09-30T09:59:43.615Z,57.36
2018-09-30T10:00:43.704Z,57.17
2018-09-30T10:01:43.797Z,56.60
2018-09-30T10:02:43.893Z,56.21
2018-09-30T10:03:43.986Z,56.05
2018-09-30T10:04:44.083Z,56.31
2018-09-30T10:05:44.175Z,56.05
2018-09-30T10:06:44.266Z,56.34
2018-09-30T10:07:44.362Z,55.67
2018-09-30T10:08:44.456Z,55.96
2018-09-30T10:09:44.565Z,55.96
2018-09-30T10:10:44.645Z,56.05
2018-09-30T10:11:44.738Z,56.34
2018-09-30T10:12:44.831Z,55.57
2018-09-30T10:13:44.924Z,55.67
2018-09-30T10:14:45.017Z,55.96
2018-09-30T10:15:45.115Z,55.67
2018-09-30T10:16:45.207Z,55.96
2018-09-30T10:17:45.298Z,55.88
2018-09-30T10:18:45.381Z,55.51
2018-09-30T10:19:45.477Z,55.02
2018-09-30T10:20:45.569Z,54.26
2018-09-30T10:21:45.667Z,54.26
2018-09-30T10:22:45.761Z,54.16
2018-09-30T10:23:45.864Z,53.78
2018-09-30T10:24:45.958Z,53.69
2018-09-30T10:25:46.053Z,53.40
2018-09-30T10:26:46.144Z,53.49
2018-09-30T10:27:46.250Z,53.88
2018-09-30T10:28:46.369Z,53.42
2018-09-30T10:29:46.422Z,53.42
2018-09-30T10:30:46.508Z,54.00
2018-09-30T10:31:46.607Z,54.57
2018-09-30T10:32:46.692Z,54.28
2018-09-30T10:33:46.791Z,55.34
2018-09-30T10:34:46.885Z,54.38
2018-09-30T10:35:46.979Z,54.19
2018-09-30T10:36:47.087Z,53.71
2018-09-30T10:37:47.182Z,53.42
2018-09-30T10:38:47.339Z,53.52
2018-09-30T10:39:47.369Z,52.85
2018-09-30T10:40:47.462Z,53.23
2018-09-30T10:41:47.558Z,52.56
2018-09-30T10:42:47.651Z,52.95
2018-09-30T10:43:47.744Z,53.16
2018-09-30T10:44:47.839Z,52.40
2018-09-30T10:45:47.932Z,51.73
2018-09-30T10:46:48.024Z,51.34
2018-09-30T10:47:48.118Z,51.82
2018-09-30T10:48:48.214Z,51.44
2018-09-30T10:49:48.310Z,50.58
2018-09-30T10:50:48.406Z,50.58
2018-09-30T10:51:48.503Z,50.67
2018-09-30T10:52:48.597Z,50.48
2018-09-30T10:53:48.694Z,50.00
2018-09-30T10:54:48.786Z,49.24
2018-09-30T10:55:48.882Z,48.85
2018-09-30T10:56:49.024Z,49.33
2018-09-30T10:57:49.060Z,49.71
2018-09-30T10:58:49.156Z,49.91
2018-09-30T10:59:49.251Z,50.22
2018-09-30T11:00:49.345Z,50.03
2018-09-30T11:01:49.444Z,49.93
2018-09-30T11:02:49.537Z,49.84
2018-09-30T11:03:49.653Z,49.74
2018-09-30T11:04:49.749Z,49.45
2018-09-30T11:05:49.842Z,48.69
2018-09-30T11:06:49.936Z,48.30
2018-09-30T11:07:50.037Z,48.33
2018-09-30T11:08:50.131Z,48.13
2018-09-30T11:09:50.242Z,47.85
2018-09-30T11:10:50.320Z,47.27
2018-09-30T11:11:50.414Z,46.89
2018-09-30T11:12:50.516Z,46.50
2018-09-30T11:13:50.607Z,46.70
2018-09-30T11:14:50.704Z,46.50
2018-09-30T11:15:50.798Z,46.50
2018-09-30T11:16:50.889Z,46.98
2018-09-30T11:17:50.986Z,47.27
2018-09-30T11:18:51.087Z,46.72
2018-09-30T11:19:51.177Z,46.50
2018-09-30T11:20:51.272Z,46.72
2018-09-30T11:21:51.367Z,46.53
2018-09-30T11:22:51.487Z,45.76
2018-09-30T11:23:51.588Z,45.86
2018-09-30T11:24:51.679Z,46.14
2018-09-30T11:25:51.777Z,45.86
2018-09-30T11:26:51.870Z,45.86
2018-09-30T11:27:51.964Z,44.80
2018-09-30T11:28:52.060Z,44.80
2018-09-30T11:29:52.153Z,44.61
2018-09-30T11:30:52.248Z,45.00
2018-09-30T11:31:52.413Z,45.37
2018-09-30T11:32:52.440Z,45.67
2018-09-30T11:33:52.536Z,45.47
2018-09-30T11:34:52.632Z,45.28
2018-09-30T11:35:52.724Z,43.65
2018-09-30T11:36:52.819Z,43.27
2018-09-30T11:37:52.918Z,43.55
2018-09-30T11:38:53.011Z,44.80
2018-09-30T11:39:53.110Z,44.70
2018-09-30T11:40:53.205Z,43.84
2018-09-30T11:41:53.302Z,43.36
2018-09-30T11:42:53.402Z,43.36
2018-09-30T11:43:53.494Z,43.67
2018-09-30T11:44:53.590Z,43.57
2018-09-30T11:45:53.684Z,43.10
2018-09-30T11:46:53.779Z,43.19
2018-09-30T11:47:53.888Z,42.90
2018-09-30T11:48:53.968Z,42.23
2018-09-30T11:49:54.058Z,42.33
2018-09-30T11:50:54.153Z,42.71
2018-09-30T11:51:54.246Z,42.71
2018-09-30T11:52:54.338Z,43.00
2018-09-30T11:53:54.442Z,43.00
2018-09-30T11:54:54.535Z,43.48
2018-09-30T11:55:54.631Z,43.10
2018-09-30T11:56:54.728Z,42.90
2018-09-30T11:57:54.824Z,42.52
2018-09-30T11:58:54.921Z,42.23
2018-09-30T11:59:55.015Z,42.04
2018-09-30T12:00:55.111Z,41.17
2018-09-30T12:01:55.207Z,41.46
2018-09-30T12:02:55.294Z,41.75
2018-09-30T12:03:55.391Z,41.27
2018-09-30T12:04:55.484Z,41.27
2018-09-30T12:05:55.579Z,42.43
2018-09-30T12:06:55.677Z,42.04
2018-09-30T12:07:55.773Z,41.75
2018-09-30T12:08:55.867Z,42.25
2018-09-30T12:09:55.961Z,42.73
2018-09-30T12:10:56.058Z,43.02
2018-09-30T12:11:56.154Z,42.73
2018-09-30T12:12:56.248Z,41.87
2018-09-30T12:13:56.344Z,42.25
2018-09-30T12:14:56.437Z,41.10
2018-09-30T12:15:56.535Z,40.81
2018-09-30T12:16:56.629Z,41.10
2018-09-30T12:17:56.724Z,41.10
2018-09-30T12:18:56.821Z,42.06
2018-09-30T12:19:56.921Z,42.35
2018-09-30T12:20:57.018Z,42.35
2018-09-30T12:21:57.115Z,42.44
2018-09-30T12:22:57.207Z,42.73
2018-09-30T12:23:57.303Z,42.35
2018-09-30T12:24:57.398Z,42.25
2018-09-30T12:25:57.537Z,41.96
2018-09-30T12:26:57.590Z,41.49
2018-09-30T12:27:57.686Z,41.58
2018-09-30T12:28:57.802Z,42.16
2018-09-30T12:29:57.929Z,42.35
2018-09-30T12:30:57.996Z,42.25
2018-09-30T12:31:58.092Z,42.16
2018-09-30T12:32:58.184Z,43.21
2018-09-30T12:33:58.282Z,42.16
2018-09-30T12:34:58.375Z,41.87
2018-09-30T12:35:58.470Z,41.50
2018-09-30T12:36:58.570Z,41.20
2018-09-30T12:37:58.667Z,41.10
2018-09-30T12:38:58.764Z,40.72
2018-09-30T12:39:58.866Z,41.12
2018-09-30T12:40:58.960Z,41.70
2018-09-30T12:41:59.054Z,41.41
2018-09-30T12:42:59.149Z,41.12
2018-09-30T12:43:59.241Z,41.89
2018-09-30T12:44:59.339Z,41.89
2018-09-30T12:45:59.435Z,41.12
2018-09-30T12:46:59.530Z,40.55
2018-09-30T12:47:59.630Z,40.83
2018-09-30T12:48:59.735Z,40.73
2018-09-30T12:49:59.832Z,40.83
2018-09-30T12:50:59.927Z,40.73
2018-09-30T12:52:07.222Z,42.37
2018-09-30T12:53:00.071Z,42.18
2018-09-30T12:54:00.168Z,39.97